sensor_id;sensor_type;location;lat;lon;timestamp;P1;durP1;ratioP1;P2;durP2;ratioP2
31596;SDS011;18201;50.978;7.034;2022-11-18T00:44:43;6.30;;;2.80;;
31596;SDS011;18201;50.978;7.034;2022-11-18T00:45:15;11.95;;;3.53;;
31596;SDS011;18201;50.978;7.034;2022-11-18T00:45:46;5.18;;;2.60;;
31596;SDS011;18201;50.978;7.034;2022-11-18T00:46:17;9.85;;;3.25;;
31596;SDS011;18201;50.978;7.034;2022-11-18T00:46:49;6.30;;;3.30;;
31596;SDS011;18201;50.978;7.034;2022-11-18T05:30:23;17.02;;;5.18;;
31596;SDS011;18201;50.978;7.034;2022-11-18T05:30:54;12.30;;;5.78;;
31596;SDS011;18201;50.978;7.034;2022-11-18T05:31:25;13.30;;;5.13;;
31596;SDS011;18201;50.978;7.034;2022-11-18T05:31:56;12.23;;;5.22;;
31596;SDS011;18201;50.978;7.034;2022-11-18T05:32:27;12.93;;;5.72;;
31596;SDS011;18201;50.978;7.034;2022-11-18T05:32:58;11.02;;;5.75;;
31596;SDS011;18201;50.978;7.034;2022-11-18T11:45:33;6.72;;;1.63;;
31596;SDS011;18201;50.978;7.034;2022-11-18T11:52:33;9.35;;;2.10;;
31596;SDS011;18201;50.978;7.034;2022-11-18T11:53:13;10.25;;;2.03;;
31596;SDS011;18201;50.978;7.034;2022-11-18T11:53:52;4.28;;;2.03;;
31596;SDS011;18201;50.978;7.034;2022-11-18T11:54:41;19.75;;;3.00;;
31596;SDS011;18201;50.978;7.034;2022-11-18T11:55:22;10.35;;;3.03;;
31596;SDS011;18201;50.978;7.034;2022-11-18T11:56:02;6.90;;;2.65;;
31596;SDS011;18201;50.978;7.034;2022-11-18T16:32:31;22.20;;;10.95;;
31596;SDS011;18201;50.978;7.034;2022-11-18T16:33:03;15.65;;;10.23;;
31596;SDS011;18201;50.978;7.034;2022-11-18T16:33:34;19.00;;;10.85;;
31596;SDS011;18201;50.978;7.034;2022-11-18T16:34:05;15.88;;;9.45;;
31596;SDS011;18201;50.978;7.034;2022-11-18T16:34:38;22.63;;;10.98;;
31596;SDS011;18201;50.978;7.034;2022-11-18T16:35:09;17.40;;;10.63;;
31596;SDS011;18201;50.978;7.034;2022-11-18T16:35:45;16.15;;;9.57;;
31596;SDS011;18201;50.978;7.034;2022-11-18T16:36:16;14.70;;;9.32;;
31596;SDS011;18201;50.978;7.034;2022-11-18T16:36:48;18.60;;;9.63;;
31596;SDS011;18201;50.978;7.034;2022-11-18T16:37:21;15.07;;;9.43;;
31596;SDS011;18201;50.978;7.034;2022-11-18T16:37:52;17.17;;;9.15;;
31596;SDS011;18201;50.978;7.034;2022-11-18T16:38:23;17.98;;;9.38;;
31596;SDS011;18201;50.978;7.034;2022-11-18T16:38:55;22.20;;;9.65;;
31596;SDS011;18201;50.978;7.034;2022-11-18T16:39:27;19.45;;;10.40;;
31596;SDS011;18201;50.978;7.034;2022-11-18T16:39:59;17.17;;;9.35;;
31596;SDS011;18201;50.978;7.034;2022-11-18T16:40:31;17.52;;;9.48;;
31596;SDS011;18201;50.978;7.034;2022-11-18T16:41:02;19.10;;;9.77;;
31596;SDS011;18201;50.978;7.034;2022-11-18T16:41:55;19.80;;;9.88;;
31596;SDS011;18201;50.978;7.034;2022-11-18T16:42:28;14.98;;;9.55;;
31596;SDS011;18201;50.978;7.034;2022-11-18T16:42:59;15.82;;;9.02;;
31596;SDS011;18201;50.978;7.034;2022-11-18T16:43:29;14.82;;;9.20;;
31596;SDS011;18201;50.978;7.034;2022-11-18T16:44:02;14.55;;;9.20;;
31596;SDS011;18201;50.978;7.034;2022-11-18T16:44:34;14.68;;;8.43;;
31596;SDS011;18201;50.978;7.034;2022-11-18T16:45:05;16.15;;;8.82;;
31596;SDS011;18201;50.978;7.034;2022-11-18T16:45:37;16.90;;;9.43;;
31596;SDS011;18201;50.978;7.034;2022-11-18T16:46:10;22.65;;;10.48;;
31596;SDS011;18201;50.978;7.034;2022-11-18T16:46:42;20.38;;;9.27;;
31596;SDS011;18201;50.978;7.034;2022-11-18T16:47:17;14.50;;;8.73;;
31596;SDS011;18201;50.978;7.034;2022-11-18T16:47:49;17.23;;;9.63;;
31596;SDS011;18201;50.978;7.034;2022-11-18T16:48:21;15.25;;;9.48;;
31596;SDS011;18201;50.978;7.034;2022-11-18T16:48:54;13.55;;;9.38;;
31596;SDS011;18201;50.978;7.034;2022-11-18T16:49:25;18.70;;;10.13;;
31596;SDS011;18201;50.978;7.034;2022-11-18T16:49:58;16.05;;;9.05;;
31596;SDS011;18201;50.978;7.034;2022-11-18T16:50:29;16.23;;;9.45;;
31596;SDS011;18201;50.978;7.034;2022-11-18T16:51:01;21.65;;;10.10;;
31596;SDS011;18201;50.978;7.034;2022-11-18T16:51:49;23.23;;;10.52;;
31596;SDS011;18201;50.978;7.034;2022-11-18T16:52:20;16.75;;;10.32;;
31596;SDS011;18201;50.978;7.034;2022-11-18T16:52:52;18.35;;;9.95;;
31596;SDS011;18201;50.978;7.034;2022-11-18T16:53:23;16.63;;;9.80;;
31596;SDS011;18201;50.978;7.034;2022-11-18T16:53:55;19.08;;;12.68;;
31596;SDS011;18201;50.978;7.034;2022-11-18T16:54:29;22.88;;;13.00;;
31596;SDS011;18201;50.978;7.034;2022-11-18T21:34:10;35.90;;;18.65;;
31596;SDS011;18201;50.978;7.034;2022-11-18T21:34:43;30.30;;;19.15;;
31596;SDS011;18201;50.978;7.034;2022-11-18T21:35:16;30.05;;;20.33;;
31596;SDS011;18201;50.978;7.034;2022-11-18T21:35:47;35.10;;;20.25;;
31596;SDS011;18201;50.978;7.034;2022-11-18T21:36:19;28.23;;;19.48;;
31596;SDS011;18201;50.978;7.034;2022-11-18T21:36:51;28.83;;;19.85;;
31596;SDS011;18201;50.978;7.034;2022-11-18T21:37:22;33.70;;;20.55;;
31596;SDS011;18201;50.978;7.034;2022-11-18T21:37:54;36.13;;;21.67;;
31596;SDS011;18201;50.978;7.034;2022-11-18T21:38:28;31.60;;;19.88;;
31596;SDS011;18201;50.978;7.034;2022-11-18T21:38:59;34.92;;;19.73;;
31596;SDS011;18201;50.978;7.034;2022-11-18T21:39:31;35.85;;;18.45;;
31596;SDS011;18201;50.978;7.034;2022-11-18T21:40:03;33.10;;;20.00;;
31596;SDS011;18201;50.978;7.034;2022-11-18T21:40:34;29.45;;;19.08;;
31596;SDS011;18201;50.978;7.034;2022-11-18T21:41:06;31.17;;;18.63;;
31596;SDS011;18201;50.978;7.034;2022-11-18T21:41:37;29.77;;;19.88;;
31596;SDS011;18201;50.978;7.034;2022-11-18T21:42:09;30.92;;;19.42;;
31596;SDS011;18201;50.978;7.034;2022-11-18T21:42:40;28.08;;;17.10;;
31596;SDS011;18201;50.978;7.034;2022-11-18T21:43:11;25.05;;;17.92;;
31596;SDS011;18201;50.978;7.034;2022-11-18T21:43:43;27.98;;;19.45;;
31596;SDS011;18201;50.978;7.034;2022-11-18T21:44:14;31.60;;;17.90;;
31596;SDS011;18201;50.978;7.034;2022-11-18T21:44:46;27.77;;;18.50;;
31596;SDS011;18201;50.978;7.034;2022-11-18T21:45:18;27.90;;;18.15;;
31596;SDS011;18201;50.978;7.034;2022-11-18T21:45:49;34.05;;;19.17;;
31596;SDS011;18201;50.978;7.034;2022-11-18T21:46:24;28.45;;;17.80;;
31596;SDS011;18201;50.978;7.034;2022-11-18T21:46:56;30.40;;;18.45;;
31596;SDS011;18201;50.978;7.034;2022-11-18T21:47:27;27.00;;;17.60;;
31596;SDS011;18201;50.978;7.034;2022-11-18T21:47:59;27.80;;;17.83;;
31596;SDS011;18201;50.978;7.034;2022-11-18T21:48:30;26.30;;;17.27;;
31596;SDS011;18201;50.978;7.034;2022-11-18T21:49:02;29.48;;;18.13;;
31596;SDS011;18201;50.978;7.034;2022-11-18T21:49:35;29.40;;;18.55;;
31596;SDS011;18201;50.978;7.034;2022-11-18T21:50:07;30.95;;;18.88;;
31596;SDS011;18201;50.978;7.034;2022-11-18T21:50:38;31.10;;;18.38;;
31596;SDS011;18201;50.978;7.034;2022-11-18T21:51:11;30.45;;;17.95;;
31596;SDS011;18201;50.978;7.034;2022-11-18T21:51:43;28.33;;;18.27;;
31596;SDS011;18201;50.978;7.034;2022-11-18T21:52:15;25.33;;;18.17;;
31596;SDS011;18201;50.978;7.034;2022-11-18T21:52:46;29.02;;;17.95;;
31596;SDS011;18201;50.978;7.034;2022-11-18T21:53:17;28.05;;;17.92;;
31596;SDS011;18201;50.978;7.034;2022-11-18T21:53:50;26.95;;;17.63;;
31596;SDS011;18201;50.978;7.034;2022-11-18T21:54:20;28.00;;;18.08;;
31596;SDS011;18201;50.978;7.034;2022-11-18T21:54:52;26.75;;;17.98;;
31596;SDS011;18201;50.978;7.034;2022-11-18T21:55:23;23.67;;;17.42;;
31596;SDS011;18201;50.978;7.034;2022-11-18T21:55:58;28.73;;;17.90;;
31596;SDS011;18201;50.978;7.034;2022-11-18T21:56:29;24.75;;;16.95;;
31596;SDS011;18201;50.978;7.034;2022-11-18T21:57:01;23.10;;;16.83;;
31596;SDS011;18201;50.978;7.034;2022-11-18T21:57:32;32.47;;;17.17;;
31596;SDS011;18201;50.978;7.034;2022-11-18T21:58:03;27.30;;;16.40;;
31596;SDS011;18201;50.978;7.034;2022-11-18T21:58:35;29.88;;;17.38;;
31596;SDS011;18201;50.978;7.034;2022-11-18T21:59:06;23.90;;;16.75;;
31596;SDS011;18201;50.978;7.034;2022-11-18T21:59:37;28.05;;;16.92;;
31596;SDS011;18201;50.978;7.034;2022-11-18T22:00:09;25.17;;;16.20;;
31596;SDS011;18201;50.978;7.034;2022-11-18T22:00:41;22.63;;;16.65;;
31596;SDS011;18201;50.978;7.034;2022-11-18T22:01:13;26.95;;;17.40;;
31596;SDS011;18201;50.978;7.034;2022-11-18T22:01:46;29.65;;;18.23;;
31596;SDS011;18201;50.978;7.034;2022-11-18T22:21:34;25.67;;;15.00;;
31596;SDS011;18201;50.978;7.034;2022-11-18T22:22:06;29.48;;;17.75;;
31596;SDS011;18201;50.978;7.034;2022-11-18T22:22:40;27.20;;;16.42;;
31596;SDS011;18201;50.978;7.034;2022-11-18T22:23:11;28.23;;;16.52;;
31596;SDS011;18201;50.978;7.034;2022-11-18T22:23:43;30.55;;;16.92;;
31596;SDS011;18201;50.978;7.034;2022-11-18T22:24:15;30.35;;;18.67;;
31596;SDS011;18201;50.978;7.034;2022-11-18T22:24:46;28.50;;;18.90;;
31596;SDS011;18201;50.978;7.034;2022-11-18T22:25:18;28.25;;;20.08;;
